Hoogezand, Netherlands
Current Conditions -  °F | °C
As of 6:55 PM on Friday 24 Oct 2014 (Local Time) from EHGG Reporting Station
Drizzle Drizzle  
Wind Chill: 52°   Ceiling: 600
Heat Index: 52°   Visibility: 1.7mi
Dew Point: 52°   Wind: 12mph
Humidity: 100%   Direction: 190°S
Pressure: 30"   Gusts: NA
Location:  53.16°N, 6.76°E
Report Text: EHGG 241655Z AUTO 19010KT 160V220 2800 +DZ FEW004 SCT005 BKN00611/11 Q1016 TEMPO 5000 RADZ BKN007
Loading
Personal Weather Stations






























Interactive Weather Map
Tropical Storm Tracking
New forecast layout! Learn more

10-Day Weather Forecast

Advertisements
Track Severe Weather on mobile